Airfield :
LOGIN :

Register | Disclaimer

   EN    FR    IT 

 










Legend :    VFR   Marginal VFR   IFR   Intensive IFR   Very Intensive IFR
Visi :
Ceiling :
>= 8 km
>= 3000ft
5 to 8 km
1000 to 3000 ft
1500m to 5 km
500 to 1000 ft
800 to 1500m
200 to 500 ft
< 800m
< 200 ft
Symbols :   Thunderstorms  Fog  Heavy snow  Heavy precipitations  Wind > 20 kt
SIGMETs :     Misc.  Thunderstorms  Icing  Turbulence  Mountain Waves  Volcanic Ashes






- Airport Elevation : 12 ft
- IATA code : BCN


LEBL - Barcelone

CURRENT METAR :
  • 070930Z 22017KT 9999 FEW025 28/23 Q1018 NOSIG

EXPIRED METARs :
  • 070900Z 21015KT 9999 FEW025 27/23 Q1018 NOSIG
  • 070830Z 22014KT CAVOK 27/22 Q1017 NOSIG
  • 070800Z 23011KT CAVOK 27/22 Q1018 NOSIG
  • 070730Z 27004KT 240V310 CAVOK 26/20 Q1018 NOSIG
  • 070700Z 29005KT CAVOK 25/17 Q1017 NOSIG

TAF TAF LEBL
Valid from the 07 at 06:00 until the 08 at 06:00 UTC


070500Z 0706/0806 31005KT 9999 FEW025 TX30/0712Z TN22/0805Z
BECMG 0707/0709 22014KT
BECMG 0719/0722 24005KT



MET'MAP, your aeronautical weather chart ! - Copyright ORBIFLY December 2007 - Disclaimer

ORBIFLY MET'MAP TEAM :

Programming & Development : Alexandra Zaïnal
Concept & original design : Baudouin d'Aumeries
Assistance for programming : Marc-Olivier Méhu
Technical & hardware support : Manuel Goepfert

Contact : metmap@orbifly.com




SOURCES & CREDITS :

   NOAA